sensor_id;sensor_type;location;lat;lon;timestamp;pressure;altitude;pressure_sealevel;temperature;humidity
27429;BME280;14881;48.092;11.574;2023-02-26T00:00:17;94596.88;;;-1.26;100.00
27429;BME280;14881;48.092;11.574;2023-02-26T00:02:46;94592.75;;;-1.33;100.00
27429;BME280;14881;48.092;11.574;2023-02-26T00:05:15;94591.13;;;-1.34;100.00
27429;BME280;14881;48.092;11.574;2023-02-26T00:07:43;94597.81;;;-1.32;100.00
27429;BME280;14881;48.092;11.574;2023-02-26T00:10:13;94593.88;;;-1.29;100.00
27429;BME280;14881;48.092;11.574;2023-02-26T00:12:42;94600.03;;;-1.29;100.00
27429;BME280;14881;48.092;11.574;2023-02-26T00:15:11;94600.03;;;-1.29;100.00
27429;BME280;14881;48.092;11.574;2023-02-26T00:17:44;94612.66;;;-1.36;100.00
27429;BME280;14881;48.092;11.574;2023-02-26T00:20:16;94602.91;;;-1.30;100.00
27429;BME280;14881;48.092;11.574;2023-02-26T00:22:44;94613.00;;;-1.32;100.00
27429;BME280;14881;48.092;11.574;2023-02-26T00:25:17;94614.75;;;-1.38;100.00
27429;BME280;14881;48.092;11.574;2023-02-26T00:27:45;94625.41;;;-1.38;100.00
27429;BME280;14881;48.092;11.574;2023-02-26T00:30:13;94629.00;;;-1.32;100.00
27429;BME280;14881;48.092;11.574;2023-02-26T00:32:42;94613.56;;;-1.30;100.00
27429;BME280;14881;48.092;11.574;2023-02-26T00:35:12;94603.41;;;-1.33;100.00
27429;BME280;14881;48.092;11.574;2023-02-26T00:37:55;94615.00;;;-1.39;100.00
27429;BME280;14881;48.092;11.574;2023-02-26T00:40:32;94618.00;;;-1.36;100.00
27429;BME280;14881;48.092;11.574;2023-02-26T00:43:02;94619.84;;;-1.36;100.00
27429;BME280;14881;48.092;11.574;2023-02-26T00:45:31;94625.41;;;-1.38;100.00
27429;BME280;14881;48.092;11.574;2023-02-26T00:48:27;94629.38;;;-1.41;100.00
27429;BME280;14881;48.092;11.574;2023-02-26T00:51:01;94629.78;;;-1.32;100.00
27429;BME280;14881;48.092;11.574;2023-02-26T00:53:35;94636.88;;;-1.37;100.00
27429;BME280;14881;48.092;11.574;2023-02-26T00:56:08;94624.88;;;-1.52;100.00
27429;BME280;14881;48.092;11.574;2023-02-26T00:58:36;94625.56;;;-1.45;100.00
27429;BME280;14881;48.092;11.574;2023-02-26T01:01:04;94626.25;;;-1.49;100.00
27429;BME280;14881;48.092;11.574;2023-02-26T01:03:32;94616.31;;;-1.54;100.00
27429;BME280;14881;48.092;11.574;2023-02-26T01:06:00;94632.41;;;-1.49;100.00
27429;BME280;14881;48.092;11.574;2023-02-26T01:08:33;94631.59;;;-1.49;100.00
27429;BME280;14881;48.092;11.574;2023-02-26T01:11:04;94624.06;;;-1.52;100.00
27429;BME280;14881;48.092;11.574;2023-02-26T01:13:33;94620.94;;;-1.49;100.00
27429;BME280;14881;48.092;11.574;2023-02-26T01:16:06;94616.19;;;-1.47;100.00
27429;BME280;14881;48.092;11.574;2023-02-26T01:18:39;94627.41;;;-1.45;100.00
27429;BME280;14881;48.092;11.574;2023-02-26T01:21:14;94630.31;;;-1.47;100.00
27429;BME280;14881;48.092;11.574;2023-02-26T01:23:46;94624.59;;;-1.38;100.00
27429;BME280;14881;48.092;11.574;2023-02-26T01:26:21;94632.75;;;-1.45;100.00
27429;BME280;14881;48.092;11.574;2023-02-26T01:28:52;94631.59;;;-1.49;100.00
27429;BME280;14881;48.092;11.574;2023-02-26T01:31:31;94629.50;;;-1.47;100.00
27429;BME280;14881;48.092;11.574;2023-02-26T01:34:05;94633.69;;;-1.51;100.00
27429;BME280;14881;48.092;11.574;2023-02-26T01:36:40;94643.78;;;-1.65;100.00
27429;BME280;14881;48.092;11.574;2023-02-26T01:39:15;94632.78;;;-1.57;100.00
27429;BME280;14881;48.092;11.574;2023-02-26T01:41:46;94641.00;;;-1.58;100.00
27429;BME280;14881;48.092;11.574;2023-02-26T01:44:22;94637.31;;;-1.57;100.00
27429;BME280;14881;48.092;11.574;2023-02-26T01:47:03;94642.63;;;-1.57;100.00
27429;BME280;14881;48.092;11.574;2023-02-26T01:49:33;94636.03;;;-1.66;100.00
27429;BME280;14881;48.092;11.574;2023-02-26T01:52:02;94638.94;;;-1.68;100.00
27429;BME280;14881;48.092;11.574;2023-02-26T01:54:31;94644.94;;;-1.72;100.00
27429;BME280;14881;48.092;11.574;2023-02-26T01:57:03;94641.81;;;-1.69;100.00
27429;BME280;14881;48.092;11.574;2023-02-26T01:59:36;94639.16;;;-1.69;100.00
27429;BME280;14881;48.092;11.574;2023-02-26T02:02:06;94643.81;;;-1.77;100.00
27429;BME280;14881;48.092;11.574;2023-02-26T02:04:35;94642.44;;;-1.79;100.00
27429;BME280;14881;48.092;11.574;2023-02-26T02:07:04;94654.81;;;-1.85;100.00
27429;BME280;14881;48.092;11.574;2023-02-26T02:09:33;94648.09;;;-1.76;100.00
27429;BME280;14881;48.092;11.574;2023-02-26T02:12:17;94656.91;;;-1.75;100.00
27429;BME280;14881;48.092;11.574;2023-02-26T02:14:58;94653.31;;;-1.81;100.00
27429;BME280;14881;48.092;11.574;2023-02-26T02:17:35;94658.75;;;-1.76;100.00
27429;BME280;14881;48.092;11.574;2023-02-26T02:20:36;94665.47;;;-1.85;100.00
27429;BME280;14881;48.092;11.574;2023-02-26T02:23:15;94668.94;;;-1.84;100.00
27429;BME280;14881;48.092;11.574;2023-02-26T02:26:25;94666.97;;;-1.89;100.00
27429;BME280;14881;48.092;11.574;2023-02-26T02:29:16;94668.69;;;-1.83;100.00
27429;BME280;14881;48.092;11.574;2023-02-26T02:31:53;94664.41;;;-1.84;100.00
27429;BME280;14881;48.092;11.574;2023-02-26T02:34:26;94672.63;;;-1.85;100.00
27429;BME280;14881;48.092;11.574;2023-02-26T02:36:58;94665.47;;;-1.85;100.00
27429;BME280;14881;48.092;11.574;2023-02-26T02:39:30;94670.66;;;-1.90;100.00
27429;BME280;14881;48.092;11.574;2023-02-26T02:42:03;94681.31;;;-1.90;100.00
27429;BME280;14881;48.092;11.574;2023-02-26T02:44:36;94676.72;;;-1.94;100.00
27429;BME280;14881;48.092;11.574;2023-02-26T02:47:08;94673.00;;;-1.93;100.00
27429;BME280;14881;48.092;11.574;2023-02-26T02:49:41;94679.03;;;-1.98;100.00
27429;BME280;14881;48.092;11.574;2023-02-26T02:52:15;94674.50;;;-1.97;100.00
27429;BME280;14881;48.092;11.574;2023-02-26T02:54:48;94685.28;;;-1.92;100.00
27429;BME280;14881;48.092;11.574;2023-02-26T02:57:20;94679.59;;;-1.96;100.00
27429;BME280;14881;48.092;11.574;2023-02-26T02:59:53;94689.56;;;-1.91;100.00
27429;BME280;14881;48.092;11.574;2023-02-26T03:02:30;94685.34;;;-1.87;100.00
27429;BME280;14881;48.092;11.574;2023-02-26T03:04:59;94689.78;;;-1.93;100.00
27429;BME280;14881;48.092;11.574;2023-02-26T03:07:28;94685.50;;;-1.94;100.00
27429;BME280;14881;48.092;11.574;2023-02-26T03:09:57;94693.94;;;-1.97;100.00
27429;BME280;14881;48.092;11.574;2023-02-26T03:12:26;94690.25;;;-1.96;100.00
27429;BME280;14881;48.092;11.574;2023-02-26T03:14:53;94700.06;;;-1.96;100.00
27429;BME280;14881;48.092;11.574;2023-02-26T03:17:28;94696.84;;;-1.98;100.00
27429;BME280;14881;48.092;11.574;2023-02-26T03:20:05;94698.44;;;-1.97;100.00
27429;BME280;14881;48.092;11.574;2023-02-26T03:22:43;94704.59;;;-1.97;100.00
27429;BME280;14881;48.092;11.574;2023-02-26T03:25:16;94698.91;;;-2.00;100.00
27429;BME280;14881;48.092;11.574;2023-02-26T03:27:48;94710.72;;;-2.08;100.00
27429;BME280;14881;48.092;11.574;2023-02-26T03:30:22;94711.50;;;-2.07;100.00
27429;BME280;14881;48.092;11.574;2023-02-26T03:33:01;94710.25;;;-2.05;100.00
27429;BME280;14881;48.092;11.574;2023-02-26T03:35:34;94715.78;;;-2.06;100.00
27429;BME280;14881;48.092;11.574;2023-02-26T03:38:08;94720.44;;;-2.14;100.00
27429;BME280;14881;48.092;11.574;2023-02-26T03:40:40;94720.53;;;-2.32;100.00
27429;BME280;14881;48.092;11.574;2023-02-26T03:43:14;94725.72;;;-2.37;100.00
27429;BME280;14881;48.092;11.574;2023-02-26T03:45:46;94725.03;;;-2.32;100.00
27429;BME280;14881;48.092;11.574;2023-02-26T03:48:19;94723.41;;;-2.33;100.00
27429;BME280;14881;48.092;11.574;2023-02-26T03:50:52;94729.19;;;-2.36;100.00
27429;BME280;14881;48.092;11.574;2023-02-26T03:53:26;94732.19;;;-2.33;100.00
27429;BME280;14881;48.092;11.574;2023-02-26T03:56:00;94730.56;;;-2.34;100.00
27429;BME280;14881;48.092;11.574;2023-02-26T03:58:30;94730.94;;;-2.30;100.00
27429;BME280;14881;48.092;11.574;2023-02-26T04:01:01;94736.78;;;-2.40;100.00
27429;BME280;14881;48.092;11.574;2023-02-26T04:03:34;94748.25;;;-2.39;100.00
27429;BME280;14881;48.092;11.574;2023-02-26T04:06:05;94741.41;;;-2.47;100.00
27429;BME280;14881;48.092;11.574;2023-02-26T04:08:33;94745.34;;;-2.50;100.00
27429;BME280;14881;48.092;11.574;2023-02-26T04:11:05;94741.66;;;-2.49;100.00
27429;BME280;14881;48.092;11.574;2023-02-26T04:13:34;94740.59;;;-2.48;100.00
27429;BME280;14881;48.092;11.574;2023-02-26T04:16:03;94738.66;;;-2.40;100.00
27429;BME280;14881;48.092;11.574;2023-02-26T04:18:32;94736.69;;;-2.45;100.00
27429;BME280;14881;48.092;11.574;2023-02-26T04:21:00;94744.88;;;-2.47;100.00
27429;BME280;14881;48.092;11.574;2023-02-26T04:23:28;94743.97;;;-2.40;100.00
27429;BME280;14881;48.092;11.574;2023-02-26T04:25:55;94742.81;;;-2.44;100.00
27429;BME280;14881;48.092;11.574;2023-02-26T04:28:23;94744.66;;;-2.45;100.00
27429;BME280;14881;48.092;11.574;2023-02-26T04:30:59;94752.94;;;-2.65;100.00
27429;BME280;14881;48.092;11.574;2023-02-26T04:33:27;94765.25;;;-2.70;100.00
27429;BME280;14881;48.092;11.574;2023-02-26T04:35:56;94763.06;;;-2.73;100.00
27429;BME280;14881;48.092;11.574;2023-02-26T04:38:24;94765.00;;;-2.81;100.00
27429;BME280;14881;48.092;11.574;2023-02-26T04:40:52;94767.88;;;-2.82;100.00
27429;BME280;14881;48.092;11.574;2023-02-26T04:43:22;94765.59;;;-2.78;100.00
27429;BME280;14881;48.092;11.574;2023-02-26T04:45:50;94774.81;;;-2.81;100.00
27429;BME280;14881;48.092;11.574;2023-02-26T04:48:18;94768.69;;;-2.82;100.00
27429;BME280;14881;48.092;11.574;2023-02-26T04:50:46;94776.53;;;-2.87;100.00
27429;BME280;14881;48.092;11.574;2023-02-26T04:53:18;94776.97;;;-2.90;100.00
27429;BME280;14881;48.092;11.574;2023-02-26T04:55:47;94778.22;;;-2.92;100.00
27429;BME280;14881;48.092;11.574;2023-02-26T04:58:18;94777.41;;;-2.93;100.00
27429;BME280;14881;48.092;11.574;2023-02-26T05:00:48;94782.88;;;-2.88;100.00
27429;BME280;14881;48.092;11.574;2023-02-26T05:03:17;94782.28;;;-2.90;100.00
27429;BME280;14881;48.092;11.574;2023-02-26T05:05:48;94778.50;;;-2.82;100.00
27429;BME280;14881;48.092;11.574;2023-02-26T05:08:15;94781.53;;;-2.78;100.00
27429;BME280;14881;48.092;11.574;2023-02-26T05:10:45;94788.84;;;-2.92;100.00
27429;BME280;14881;48.092;11.574;2023-02-26T05:13:13;94790.13;;;-2.95;100.00
27429;BME280;14881;48.092;11.574;2023-02-26T05:15:41;94792.34;;;-3.10;100.00
27429;BME280;14881;48.092;11.574;2023-02-26T05:18:09;94796.50;;;-3.14;100.00
27429;BME280;14881;48.092;11.574;2023-02-26T05:20:36;94798.13;;;-3.31;100.00
27429;BME280;14881;48.092;11.574;2023-02-26T05:23:04;94795.53;;;-3.38;100.00
27429;BME280;14881;48.092;11.574;2023-02-26T05:25:32;94807.16;;;-3.39;100.00
27429;BME280;14881;48.092;11.574;2023-02-26T05:28:01;94812.31;;;-3.44;100.00
27429;BME280;14881;48.092;11.574;2023-02-26T05:30:32;94814.16;;;-3.44;100.00
27429;BME280;14881;48.092;11.574;2023-02-26T05:33:00;94815.28;;;-3.52;100.00
27429;BME280;14881;48.092;11.574;2023-02-26T05:35:27;94812.69;;;-3.59;100.00
27429;BME280;14881;48.092;11.574;2023-02-26T05:37:55;94820.72;;;-3.65;100.00
27429;BME280;14881;48.092;11.574;2023-02-26T05:40:29;94821.59;;;-3.71;100.00
27429;BME280;14881;48.092;11.574;2023-02-26T05:42:56;94810.66;;;-3.81;100.00
27429;BME280;14881;48.092;11.574;2023-02-26T05:45:26;94829.25;;;-3.81;100.00
27429;BME280;14881;48.092;11.574;2023-02-26T05:47:55;94820.09;;;-3.86;100.00
27429;BME280;14881;48.092;11.574;2023-02-26T05:50:22;94819.69;;;-3.89;100.00
27429;BME280;14881;48.092;11.574;2023-02-26T05:52:50;94818.72;;;-3.95;100.00
27429;BME280;14881;48.092;11.574;2023-02-26T05:55:18;94805.53;;;-4.01;100.00
27429;BME280;14881;48.092;11.574;2023-02-26T05:57:46;94815.53;;;-4.03;100.00
27429;BME280;14881;48.092;11.574;2023-02-26T06:00:16;94820.03;;;-4.04;100.00
27429;BME280;14881;48.092;11.574;2023-02-26T06:02:48;94820.69;;;-4.08;100.00
27429;BME280;14881;48.092;11.574;2023-02-26T06:05:16;94826.81;;;-4.14;100.00
27429;BME280;14881;48.092;11.574;2023-02-26T06:07:44;94834.31;;;-4.05;100.00
27429;BME280;14881;48.092;11.574;2023-02-26T06:10:15;94843.09;;;-4.04;100.00
27429;BME280;14881;48.092;11.574;2023-02-26T06:12:48;94856.97;;;-4.09;100.00
27429;BME280;14881;48.092;11.574;2023-02-26T06:15:19;94874.41;;;-3.95;100.00
27429;BME280;14881;48.092;11.574;2023-02-26T06:17:48;94877.84;;;-3.88;100.00
27429;BME280;14881;48.092;11.574;2023-02-26T06:20:19;94888.78;;;-3.77;100.00
27429;BME280;14881;48.092;11.574;2023-02-26T06:22:47;94890.16;;;-3.68;100.00
27429;BME280;14881;48.092;11.574;2023-02-26T06:25:17;94905.09;;;-3.49;100.00
27429;BME280;14881;48.092;11.574;2023-02-26T06:27:45;94899.78;;;-3.49;100.00
27429;BME280;14881;48.092;11.574;2023-02-26T06:30:13;94899.22;;;-3.33;100.00
27429;BME280;14881;48.092;11.574;2023-02-26T06:32:41;94895.25;;;-3.24;100.00
27429;BME280;14881;48.092;11.574;2023-02-26T06:35:13;94897.03;;;-3.18;100.00
27429;BME280;14881;48.092;11.574;2023-02-26T06:37:40;94899.75;;;-3.06;100.00
27429;BME280;14881;48.092;11.574;2023-02-26T06:40:09;94899.84;;;-2.94;100.00
27429;BME280;14881;48.092;11.574;2023-02-26T06:42:37;94894.44;;;-3.06;100.00
27429;BME280;14881;48.092;11.574;2023-02-26T06:45:05;94911.63;;;-3.08;100.00
27429;BME280;14881;48.092;11.574;2023-02-26T06:47:33;94900.06;;;-3.14;100.00
27429;BME280;14881;48.092;11.574;2023-02-26T06:50:01;94905.81;;;-3.17;100.00
27429;BME280;14881;48.092;11.574;2023-02-26T06:52:31;94906.75;;;-3.11;100.00
27429;BME280;14881;48.092;11.574;2023-02-26T06:54:58;94913.25;;;-3.07;100.00
27429;BME280;14881;48.092;11.574;2023-02-26T06:57:26;94907.91;;;-3.01;100.00
27429;BME280;14881;48.092;11.574;2023-02-26T06:59:54;94916.38;;;-2.92;100.00
27429;BME280;14881;48.092;11.574;2023-02-26T07:02:22;94927.09;;;-2.99;100.00
27429;BME280;14881;48.092;11.574;2023-02-26T07:04:50;94921.19;;;-3.01;100.00
27429;BME280;14881;48.092;11.574;2023-02-26T07:07:20;94933.81;;;-2.96;100.00
27429;BME280;14881;48.092;11.574;2023-02-26T07:09:49;94937.41;;;-2.91;100.00
27429;BME280;14881;48.092;11.574;2023-02-26T07:12:17;94942.34;;;-2.94;100.00
27429;BME280;14881;48.092;11.574;2023-02-26T07:14:45;94953.44;;;-2.79;100.00
27429;BME280;14881;48.092;11.574;2023-02-26T07:17:13;94944.44;;;-2.78;100.00
27429;BME280;14881;48.092;11.574;2023-02-26T07:19:46;94948.81;;;-2.65;100.00
27429;BME280;14881;48.092;11.574;2023-02-26T07:22:15;94950.22;;;-2.63;100.00
27429;BME280;14881;48.092;11.574;2023-02-26T07:24:43;94947.00;;;-2.35;100.00
27429;BME280;14881;48.092;11.574;2023-02-26T07:27:15;94953.88;;;-2.27;100.00
27429;BME280;14881;48.092;11.574;2023-02-26T07:29:42;94958.22;;;-2.15;100.00
27429;BME280;14881;48.092;11.574;2023-02-26T07:32:10;94956.59;;;-2.16;100.00
27429;BME280;14881;48.092;11.574;2023-02-26T07:34:38;94946.84;;;-2.22;100.00
27429;BME280;14881;48.092;11.574;2023-02-26T07:37:06;94951.88;;;-2.14;100.00
27429;BME280;14881;48.092;11.574;2023-02-26T07:39:33;94955.22;;;-2.06;100.00
27429;BME280;14881;48.092;11.574;2023-02-26T07:42:01;94961.09;;;-2.16;100.00
27429;BME280;14881;48.092;11.574;2023-02-26T07:44:30;94954.06;;;-2.11;100.00
27429;BME280;14881;48.092;11.574;2023-02-26T07:46:58;94957.34;;;-2.27;100.00
27429;BME280;14881;48.092;11.574;2023-02-26T07:49:26;94962.34;;;-2.19;100.00
27429;BME280;14881;48.092;11.574;2023-02-26T07:51:54;94972.94;;;-2.30;100.00
27429;BME280;14881;48.092;11.574;2023-02-26T07:54:24;94967.84;;;-2.32;100.00
27429;BME280;14881;48.092;11.574;2023-02-26T07:56:52;94969.81;;;-2.09;100.00
27429;BME280;14881;48.092;11.574;2023-02-26T07:59:20;94976.81;;;-1.96;100.00
27429;BME280;14881;48.092;11.574;2023-02-26T08:01:50;94988.19;;;-2.07;100.00
27429;BME280;14881;48.092;11.574;2023-02-26T08:04:18;94983.81;;;-1.84;100.00
27429;BME280;14881;48.092;11.574;2023-02-26T08:06:46;94985.34;;;-1.76;100.00
27429;BME280;14881;48.092;11.574;2023-02-26T08:09:14;94981.28;;;-1.79;100.00
27429;BME280;14881;48.092;11.574;2023-02-26T08:11:42;94975.72;;;-1.77;100.00
27429;BME280;14881;48.092;11.574;2023-02-26T08:14:10;94975.03;;;-1.72;100.00
27429;BME280;14881;48.092;11.574;2023-02-26T08:16:38;94979.91;;;-1.69;100.00
27429;BME280;14881;48.092;11.574;2023-02-26T08:19:07;94988.25;;;-1.66;100.00
27429;BME280;14881;48.092;11.574;2023-02-26T08:21:36;94992.72;;;-1.48;100.00
27429;BME280;14881;48.092;11.574;2023-02-26T08:24:04;94995.63;;;-1.38;100.00
27429;BME280;14881;48.092;11.574;2023-02-26T08:26:34;94999.00;;;-1.31;100.00
27429;BME280;14881;48.092;11.574;2023-02-26T08:29:03;94996.03;;;-1.23;100.00
27429;BME280;14881;48.092;11.574;2023-02-26T08:31:31;94995.56;;;-1.20;100.00
27429;BME280;14881;48.092;11.574;2023-02-26T08:34:01;95002.88;;;-1.15;100.00
27429;BME280;14881;48.092;11.574;2023-02-26T08:36:31;95004.41;;;-1.08;100.00
27429;BME280;14881;48.092;11.574;2023-02-26T08:38:59;95008.41;;;-1.17;100.00
27429;BME280;14881;48.092;11.574;2023-02-26T08:41:29;95019.34;;;-1.07;100.00
27429;BME280;14881;48.092;11.574;2023-02-26T08:43:57;95018.53;;;-1.07;100.00
27429;BME280;14881;48.092;11.574;2023-02-26T08:46:26;95010.19;;;-0.99;100.00
27429;BME280;14881;48.092;11.574;2023-02-26T08:48:54;95015.78;;;-0.77;100.00
27429;BME280;14881;48.092;11.574;2023-02-26T08:51:22;95015.09;;;-0.61;100.00
27429;BME280;14881;48.092;11.574;2023-02-26T08:53:52;95022.16;;;-0.55;100.00
27429;BME280;14881;48.092;11.574;2023-02-26T08:56:19;95018.22;;;-0.52;100.00
27429;BME280;14881;48.092;11.574;2023-02-26T08:58:48;95024.81;;;-0.43;100.00
27429;BME280;14881;48.092;11.574;2023-02-26T09:01:16;95025.25;;;-0.35;100.00
27429;BME280;14881;48.092;11.574;2023-02-26T09:03:43;95037.13;;;-0.42;100.00
27429;BME280;14881;48.092;11.574;2023-02-26T09:06:11;95038.25;;;-0.85;100.00
27429;BME280;14881;48.092;11.574;2023-02-26T09:08:39;95048.22;;;-0.80;100.00
27429;BME280;14881;48.092;11.574;2023-02-26T09:11:08;95048.69;;;-0.83;100.00
27429;BME280;14881;48.092;11.574;2023-02-26T09:13:36;95054.38;;;-0.80;100.00
27429;BME280;14881;48.092;11.574;2023-02-26T09:16:05;95055.19;;;-0.79;100.00
27429;BME280;14881;48.092;11.574;2023-02-26T09:18:33;95053.25;;;-0.60;100.00
27429;BME280;14881;48.092;11.574;2023-02-26T09:21:01;95059.97;;;-0.58;100.00
27429;BME280;14881;48.092;11.574;2023-02-26T09:23:32;95065.63;;;-0.66;100.00
27429;BME280;14881;48.092;11.574;2023-02-26T09:25:59;95067.47;;;-0.78;100.00
27429;BME280;14881;48.092;11.574;2023-02-26T09:28:28;95072.66;;;-0.95;100.00
27429;BME280;14881;48.092;11.574;2023-02-26T09:30:56;95074.44;;;-0.89;100.00
27429;BME280;14881;48.092;11.574;2023-02-26T09:33:24;95070.94;;;-0.89;100.00
27429;BME280;14881;48.092;11.574;2023-02-26T09:35:52;95082.06;;;-0.92;100.00
27429;BME280;14881;48.092;11.574;2023-02-26T09:38:20;95080.81;;;-0.90;100.00
27429;BME280;14881;48.092;11.574;2023-02-26T09:40:51;95075.75;;;-0.56;100.00
27429;BME280;14881;48.092;11.574;2023-02-26T09:43:34;95077.03;;;-0.24;100.00
27429;BME280;14881;48.092;11.574;2023-02-26T09:46:12;95086.16;;;0.15;100.00
27429;BME280;14881;48.092;11.574;2023-02-26T09:48:46;95075.31;;;0.33;100.00
27429;BME280;14881;48.092;11.574;2023-02-26T09:51:19;95074.75;;;0.60;100.00
27429;BME280;14881;48.092;11.574;2023-02-26T09:53:48;95075.88;;;1.21;100.00
27429;BME280;14881;48.092;11.574;2023-02-26T09:56:20;95081.72;;;0.89;100.00
27429;BME280;14881;48.092;11.574;2023-02-26T09:58:51;95082.75;;;1.17;100.00
27429;BME280;14881;48.092;11.574;2023-02-26T10:01:26;95085.78;;;0.92;100.00
27429;BME280;14881;48.092;11.574;2023-02-26T10:04:04;95098.81;;;0.88;100.00
27429;BME280;14881;48.092;11.574;2023-02-26T10:06:42;95099.16;;;0.63;100.00
27429;BME280;14881;48.092;11.574;2023-02-26T10:09:29;95086.94;;;0.67;100.00
27429;BME280;14881;48.092;11.574;2023-02-26T10:12:00;95090.16;;;0.69;100.00
27429;BME280;14881;48.092;11.574;2023-02-26T10:14:34;95092.34;;;0.84;100.00
27429;BME280;14881;48.092;11.574;2023-02-26T10:17:05;95080.28;;;0.98;100.00
27429;BME280;14881;48.092;11.574;2023-02-26T10:19:37;95089.69;;;0.73;100.00
27429;BME280;14881;48.092;11.574;2023-02-26T10:22:14;95091.19;;;0.80;100.00
27429;BME280;14881;48.092;11.574;2023-02-26T10:24:46;95085.34;;;0.55;100.00
27429;BME280;14881;48.092;11.574;2023-02-26T10:27:21;95088.22;;;0.25;100.00
27429;BME280;14881;48.092;11.574;2023-02-26T10:29:57;95088.91;;;0.20;100.00
27429;BME280;14881;48.092;11.574;2023-02-26T10:32:32;95094.00;;;0.33;100.00
27429;BME280;14881;48.092;11.574;2023-02-26T10:35:04;95083.81;;;0.59;100.00
27429;BME280;14881;48.092;11.574;2023-02-26T10:37:43;95075.31;;;0.90;100.00
27429;BME280;14881;48.092;11.574;2023-02-26T10:40:17;95069.88;;;1.30;100.00
27429;BME280;14881;48.092;11.574;2023-02-26T10:42:47;95066.03;;;1.60;100.00
27429;BME280;14881;48.092;11.574;2023-02-26T10:45:34;95068.72;;;1.77;100.00
27429;BME280;14881;48.092;11.574;2023-02-26T10:48:22;95061.44;;;1.55;100.00
27429;BME280;14881;48.092;11.574;2023-02-26T10:50:56;95073.84;;;1.28;100.00
27429;BME280;14881;48.092;11.574;2023-02-26T10:53:26;95066.44;;;1.01;100.00
27429;BME280;14881;48.092;11.574;2023-02-26T10:56:00;95064.22;;;0.82;100.00
27429;BME280;14881;48.092;11.574;2023-02-26T10:58:28;95057.78;;;0.66;100.00
27429;BME280;14881;48.092;11.574;2023-02-26T11:00:59;95059.28;;;0.62;100.00
27429;BME280;14881;48.092;11.574;2023-02-26T11:03:31;95048.84;;;0.60;100.00
27429;BME280;14881;48.092;11.574;2023-02-26T11:06:00;95053.84;;;0.57;100.00
27429;BME280;14881;48.092;11.574;2023-02-26T11:08:34;95052.75;;;0.41;100.00
27429;BME280;14881;48.092;11.574;2023-02-26T11:11:04;95046.47;;;0.35;100.00
27429;BME280;14881;48.092;11.574;2023-02-26T11:13:34;95049.47;;;0.51;100.00
27429;BME280;14881;48.092;11.574;2023-02-26T11:16:08;95042.38;;;0.73;100.00
27429;BME280;14881;48.092;11.574;2023-02-26T11:18:40;95047.78;;;1.07;100.00
27429;BME280;14881;48.092;11.574;2023-02-26T11:21:12;95054.28;;;1.11;100.00
27429;BME280;14881;48.092;11.574;2023-02-26T11:23:45;95059.00;;;0.75;100.00
27429;BME280;14881;48.092;11.574;2023-02-26T11:26:16;95077.00;;;0.51;100.00
27429;BME280;14881;48.092;11.574;2023-02-26T11:28:47;95090.84;;;0.48;100.00
27429;BME280;14881;48.092;11.574;2023-02-26T11:31:18;95090.84;;;0.48;100.00
27429;BME280;14881;48.092;11.574;2023-02-26T11:33:48;95085.69;;;0.58;100.00
27429;BME280;14881;48.092;11.574;2023-02-26T11:36:18;95096.13;;;0.88;100.00
27429;BME280;14881;48.092;11.574;2023-02-26T11:38:52;95094.41;;;1.27;100.00
27429;BME280;14881;48.092;11.574;2023-02-26T11:41:22;95083.66;;;1.72;100.00
27429;BME280;14881;48.092;11.574;2023-02-26T11:43:58;95084.78;;;2.15;100.00
27429;BME280;14881;48.092;11.574;2023-02-26T11:46:29;95077.97;;;1.86;100.00
27429;BME280;14881;48.092;11.574;2023-02-26T11:48:59;95091.84;;;1.49;100.00
27429;BME280;14881;48.092;11.574;2023-02-26T11:51:28;95088.25;;;1.10;100.00
27429;BME280;14881;48.092;11.574;2023-02-26T11:53:58;95091.53;;;0.84;100.00
27429;BME280;14881;48.092;11.574;2023-02-26T11:56:30;95108.81;;;0.53;100.00
27429;BME280;14881;48.092;11.574;2023-02-26T11:59:05;95102.84;;;0.34;100.00
27429;BME280;14881;48.092;11.574;2023-02-26T12:01:35;95110.75;;;0.29;100.00
27429;BME280;14881;48.092;11.574;2023-02-26T12:04:04;95109.69;;;0.18;100.00
27429;BME280;14881;48.092;11.574;2023-02-26T12:06:31;95108.00;;;0.52;100.00
27429;BME280;14881;48.092;11.574;2023-02-26T12:08:59;95106.88;;;1.22;100.00
27429;BME280;14881;48.092;11.574;2023-02-26T12:11:49;95090.91;;;1.94;100.00
27429;BME280;14881;48.092;11.574;2023-02-26T12:14:57;95089.63;;;1.80;100.00
27429;BME280;14881;48.092;11.574;2023-02-26T12:17:41;95089.88;;;1.78;100.00
27429;BME280;14881;48.092;11.574;2023-02-26T12:20:19;95100.78;;;1.38;100.00
27429;BME280;14881;48.092;11.574;2023-02-26T12:22:53;95112.81;;;1.24;100.00
27429;BME280;14881;48.092;11.574;2023-02-26T12:25:47;95107.06;;;1.15;100.00
27429;BME280;14881;48.092;11.574;2023-02-26T12:28:54;95111.84;;;1.13;100.00
27429;BME280;14881;48.092;11.574;2023-02-26T12:31:42;95105.03;;;1.39;100.00
27429;BME280;14881;48.092;11.574;2023-02-26T12:34:30;95104.88;;;1.96;100.00
27429;BME280;14881;48.092;11.574;2023-02-26T12:37:10;95105.00;;;2.88;100.00
27429;BME280;14881;48.092;11.574;2023-02-26T12:39:52;95099.41;;;3.17;100.00
27429;BME280;14881;48.092;11.574;2023-02-26T12:42:36;95075.25;;;3.48;100.00
27429;BME280;14881;48.092;11.574;2023-02-26T12:45:19;95078.16;;;4.16;100.00
27429;BME280;14881;48.092;11.574;2023-02-26T12:48:14;95073.00;;;4.57;100.00
27429;BME280;14881;48.092;11.574;2023-02-26T12:50:54;95073.06;;;4.72;100.00
27429;BME280;14881;48.092;11.574;2023-02-26T12:56:55;95067.88;;;3.29;100.00
27429;BME280;14881;48.092;11.574;2023-02-26T13:03:06;95063.56;;;2.74;100.00
27429;BME280;14881;48.092;11.574;2023-02-26T13:05:46;95050.09;;;3.55;100.00
27429;BME280;14881;48.092;11.574;2023-02-26T13:08:25;95053.50;;;3.45;100.00
27429;BME280;14881;48.092;11.574;2023-02-26T13:11:08;95053.13;;;4.05;100.00
27429;BME280;14881;48.092;11.574;2023-02-26T13:13:51;95059.94;;;4.23;100.00